Time;durP1;ratioP1;P1;durP2;ratioP2;P2;SDS_P1;SDS_P2;PMS_P1;PMS_P2;Temp;Humidity;BMP_temperature;BMP_pressure;BME280_temperature;BME280_humidity;BME280_pressure;Samples;Min_cycle;Max_cycle;Signal;HPM_P1;HPM_P2
2021/12/16 00:01:59;;;;;;;19.92;5.55;;;;;;;0.14;100.00;94525.78;2127564;27;20015;-87
2021/12/16 00:03:43;;;;;;;23.98;5.75;;;;;;;0.08;100.00;94531.50;2126975;27;20069;-87
2021/12/16 00:05:37;;;;;;;27.80;6.40;;;;;;;0.06;100.00;94531.06;2129188;27;20031;-86
2021/12/16 00:07:28;;;;;;;26.85;5.95;;;;;;;0.30;100.00;94528.66;2128113;27;20820;-87
2021/12/16 00:08:42;;;;;;;18.63;5.80;;;;;;;0.34;100.00;94528.78;2126602;27;20023;-88
2021/12/16 00:10:56;;;;;;;29.45;6.25;;;;;;;0.12;100.00;94529.81;2118930;27;20031;-87
2021/12/16 00:31:52;;;;;;;12.90;5.90;;;;;;;0.27;100.00;94524.03;2118633;27;20102;-87
2021/12/16 00:34:14;;;;;;;;;;;;;;;0.40;100.00;94517.03;2118263;27;20468;-87
2021/12/16 00:35:16;;;;;;;16.48;5.80;;;;;;;0.33;100.00;94508.84;2119089;27;19911;-86
2021/12/16 00:36:16;;;;;;;36.40;6.85;;;;;;;0.31;100.00;94516.28;2112677;28;20026;-87
2021/12/16 00:37:20;;;;;;;44.92;6.07;;;;;;;0.23;100.00;94505.50;2119167;27;20018;-87
2021/12/16 00:38:21;;;;;;;45.45;6.03;;;;;;;0.19;100.00;94511.69;2111298;28;20050;-87
2021/12/16 00:39:33;;;;;;;26.02;6.15;;;;;;;0.16;100.00;94513.09;2112624;28;20027;-87
2021/12/16 00:40:38;;;;;;;35.38;5.80;;;;;;;0.12;100.00;94516.66;2111933;28;20019;-86
2021/12/16 00:41:47;;;;;;;14.90;6.25;;;;;;;0.12;100.00;94514.81;2109226;28;20020;-88
2021/12/16 00:42:52;;;;;;;43.85;5.95;;;;;;;0.06;100.00;94512.66;2110716;28;20027;-87
2021/12/16 00:47:55;;;;;;;44.67;5.60;;;;;;;0.28;100.00;94511.66;2119891;27;20019;-86
2021/12/16 00:54:09;;;;;;;40.13;5.97;;;;;;;0.35;100.00;94506.66;2119446;27;20791;-87
2021/12/16 00:54:26;;;;;;;21.45;5.13;;;;;;;0.20;100.00;94510.59;2117089;27;20015;-88
2021/12/16 00:55:45;;;;;;;25.88;5.15;;;;;;;0.15;100.00;94505.53;2119570;27;20015;-86
2021/12/16 00:57:01;;;;;;;9.83;5.37;;;;;;;0.08;100.00;94506.00;2117855;27;20027;-88
2021/12/16 00:58:03;;;;;;;42.83;5.47;;;;;;;0.10;100.00;94508.31;2117865;27;20429;-88
2021/12/16 00:59:06;;;;;;;26.10;5.90;;;;;;;0.34;100.00;94505.13;2118665;27;20016;-86
2021/12/16 01:00:11;;;;;;;52.78;6.32;;;;;;;0.20;100.00;94515.84;2117302;27;20051;-88
2021/12/16 01:04:27;;;;;;;25.30;5.05;;;;;;;0.13;100.00;94519.00;2119731;27;20024;-88
2021/12/16 01:08:21;;;;;;;26.70;6.03;;;;;;;0.15;100.00;94523.94;2119486;27;20345;-86
2021/12/16 01:34:14;;;;;;;10.93;5.77;;;;;;;0.24;100.00;94537.81;2127884;27;20840;-86
2021/12/16 01:36:11;;;;;;;35.50;5.68;;;;;;;0.38;100.00;94537.59;2127326;27;20501;-87
2021/12/16 01:37:00;;;;;;;29.88;6.05;;;;;;;0.32;100.00;94528.34;2117512;27;20362;-87
2021/12/16 01:38:41;;;;;;;21.45;5.03;;;;;;;0.30;100.00;94535.78;2127797;27;20159;-86
2021/12/16 01:49:46;;;;;;;23.98;6.35;;;;;;;-0.01;100.00;94549.94;2127932;27;20110;-88
2021/12/16 01:51:02;;;;;;;;;;;;;;;0.11;100.00;94539.56;2127785;27;20023;-87
2021/12/16 01:53:38;;;;;;;19.48;5.50;;;;;;;0.11;100.00;94549.28;2127235;27;20105;-89
2021/12/16 01:56:07;;;;;;;32.88;5.78;;;;;;;0.16;100.00;94547.25;2125148;27;20479;-86
2021/12/16 01:57:22;;;;;;;12.23;4.80;;;;;;;0.10;100.00;94543.28;2127303;27;20424;-87
2021/12/16 01:58:26;;;;;;;14.77;5.95;;;;;;;0.15;100.00;94550.22;2122290;27;20384;-88
2021/12/16 01:59:34;;;;;;;21.85;6.63;;;;;;;0.41;100.00;94550.13;2123212;27;20475;-87
2021/12/16 02:00:55;;;;;;;18.15;5.70;;;;;;;0.21;100.00;94551.56;2124838;27;20518;-86
2021/12/16 02:02:03;;;;;;;16.52;5.00;;;;;;;0.30;100.00;94556.81;2118709;27;20067;-87
2021/12/16 02:03:05;;;;;;;14.50;5.85;;;;;;;0.42;100.00;94543.78;2122780;27;20110;-88
2021/12/16 02:04:21;;;;;;;18.80;5.25;;;;;;;0.34;100.00;94547.22;2119150;27;20060;-88
2021/12/16 02:08:15;;;;;;;41.13;5.75;;;;;;;0.04;100.00;94538.47;2125584;27;20442;-86
2021/12/16 02:09:36;;;;;;;25.65;5.72;;;;;;;0.14;100.00;94535.53;2127602;27;20068;-87
2021/12/16 02:10:44;;;;;;;8.77;5.75;;;;;;;0.30;100.00;94533.91;2126952;27;20129;-87
2021/12/16 02:12:03;;;;;;;18.85;6.53;;;;;;;0.63;100.00;94531.47;2117615;27;20020;-86
2021/12/16 02:13:33;;;;;;;28.40;5.10;;;;;;;0.67;100.00;94528.97;2120579;27;20020;-89
2021/12/16 02:31:57;;;;;;;21.33;5.47;;;;;;;0.07;100.00;94522.84;2126066;27;20079;-87
2021/12/16 02:34:32;;;;;;;9.32;6.07;;;;;;;0.12;100.00;94529.81;2125394;27;20472;-86
2021/12/16 02:35:45;;;;;;;13.90;6.03;;;;;;;0.05;100.00;94525.03;2125421;27;20023;-86
2021/12/16 02:36:49;;;;;;;14.85;7.10;;;;;;;0.04;100.00;94525.34;2122075;27;20098;-86
2021/12/16 02:37:55;;;;;;;25.92;6.63;;;;;;;-0.02;100.00;94527.38;2119847;27;20022;-88
2021/12/16 02:39:14;;;;;;;13.75;6.38;;;;;;;0.07;100.00;94522.09;2121148;27;20030;-87
2021/12/16 02:40:18;;;;;;;20.20;6.47;;;;;;;-0.02;100.00;94532.63;2118996;27;20106;-87
2021/12/16 02:41:21;;;;;;;19.48;5.78;;;;;;;-0.04;100.00;94537.44;2119487;28;20729;-86
2021/12/16 02:42:37;;;;;;;18.65;6.80;;;;;;;-0.08;100.00;94526.78;2116428;28;20027;-86
2021/12/16 02:44:12;;;;;;;16.23;6.43;;;;;;;0.03;100.00;94534.31;2120550;28;20735;-87
2021/12/16 02:49:01;;;;;;;12.13;6.13;;;;;;;0.26;100.00;94522.47;2125535;27;20023;-87
2021/12/16 02:50:02;;;;;;;14.70;6.03;;;;;;;0.18;100.00;94523.31;2124936;27;20020;-86
2021/12/16 02:51:08;;;;;;;13.82;6.13;;;;;;;0.13;100.00;94526.06;2123378;27;20765;-88
2021/12/16 02:52:09;;;;;;;14.52;6.57;;;;;;;0.25;100.00;94534.84;2126671;27;20026;-87
2021/12/16 02:53:09;;;;;;;23.38;7.03;;;;;;;0.14;100.00;94538.94;2124800;27;20043;-86
2021/12/16 02:54:10;;;;;;;21.00;6.72;;;;;;;0.09;100.00;94533.84;2124792;27;20016;-87
2021/12/16 02:55:12;;;;;;;12.15;6.72;;;;;;;0.07;100.00;94528.13;2124432;27;20102;-86
2021/12/16 02:56:14;;;;;;;15.23;6.32;;;;;;;0.12;100.00;94521.91;2126819;27;20026;-88
2021/12/16 02:57:16;;;;;;;16.85;6.22;;;;;;;0.07;100.00;94524.72;2125034;27;20026;-88
2021/12/16 02:58:16;;;;;;;12.02;5.35;;;;;;;0.13;100.00;94516.38;2126629;27;20063;-88
2021/12/16 02:59:20;;;;;;;25.23;6.95;;;;;;;0.11;100.00;94513.25;2125200;27;20030;-88
2021/12/16 03:00:20;;;;;;;37.28;7.40;;;;;;;0.00;100.00;94517.34;2125813;27;20022;-87
2021/12/16 03:01:36;;;;;;;22.25;6.65;;;;;;;0.02;100.00;94509.91;2125970;27;20483;-88
2021/12/16 03:02:37;;;;;;;21.90;6.55;;;;;;;-0.07;100.00;94517.03;2121606;27;20046;-86
2021/12/16 03:03:39;;;;;;;13.93;6.72;;;;;;;0.07;100.00;94522.09;2120909;27;20148;-87
2021/12/16 03:04:42;;;;;;;9.60;6.43;;;;;;;0.16;100.00;94526.22;2122121;27;20744;-87
2021/12/16 03:05:44;;;;;;;20.95;7.47;;;;;;;0.27;100.00;94529.31;2120090;27;20027;-88
2021/12/16 03:06:47;;;;;;;15.05;7.47;;;;;;;0.22;100.00;94522.34;2128529;27;20050;-86
2021/12/16 03:07:50;;;;;;;11.68;6.72;;;;;;;0.31;100.00;94524.16;2123083;27;20031;-87
2021/12/16 03:08:51;;;;;;;11.88;7.35;;;;;;;0.35;100.00;94523.25;2121216;27;20043;-86
2021/12/16 03:11:23;;;;;;;10.35;6.20;;;;;;;0.23;100.00;94523.13;2127058;27;20465;-86
2021/12/16 03:12:53;;;;;;;12.40;6.55;;;;;;;0.18;100.00;94510.94;2130325;27;20073;-89
2021/12/16 03:15:11;;;;;;;9.32;6.07;;;;;;;0.09;100.00;94517.28;2124280;27;20024;-87
2021/12/16 03:17:32;;;;;;;12.70;6.70;;;;;;;0.10;100.00;94511.72;2130487;27;20026;-88
2021/12/16 03:18:44;;;;;;;10.15;5.70;;;;;;;0.11;100.00;94512.50;2128931;27;20027;-88
2021/12/16 03:19:57;;;;;;;21.02;6.45;;;;;;;0.15;100.00;94505.53;2129260;27;20429;-86
2021/12/16 03:21:08;;;;;;;15.55;6.75;;;;;;;0.20;100.00;94511.38;2130000;27;20022;-88
2021/12/16 03:22:19;;;;;;;15.85;6.50;;;;;;;0.09;100.00;94499.69;2124742;27;20093;-88
2021/12/16 03:23:38;;;;;;;22.90;6.53;;;;;;;0.05;100.00;94508.50;2121156;27;20023;-85
2021/12/16 03:35:13;;;;;;;11.15;6.60;;;;;;;0.31;100.00;94500.50;2128793;27;20460;-87
2021/12/16 03:37:24;;;;;;;16.67;7.38;;;;;;;0.23;100.00;94509.97;2126236;27;20019;-87
2021/12/16 03:38:25;;;;;;;18.15;6.88;;;;;;;0.19;100.00;94515.09;2126891;27;20102;-88
2021/12/16 03:39:26;;;;;;;19.17;8.13;;;;;;;0.26;100.00;94514.59;2128395;27;20029;-86
2021/12/16 03:40:27;;;;;;;12.07;7.38;;;;;;;0.19;100.00;94509.06;2126007;27;20015;-86
2021/12/16 03:41:28;;;;;;;12.93;7.40;;;;;;;0.18;100.00;94507.53;2123482;27;20042;-87
2021/12/16 03:42:35;;;;;;;17.17;7.15;;;;;;;0.09;100.00;94510.19;2119382;27;20106;-88
2021/12/16 03:43:50;;;;;;;12.68;6.30;;;;;;;0.18;100.00;94510.16;2122583;27;20351;-86
2021/12/16 03:44:55;;;;;;;17.58;7.68;;;;;;;0.12;100.00;94511.41;2120288;27;20476;-87
2021/12/16 03:47:13;;;;;;;14.40;6.53;;;;;;;0.07;100.00;94514.22;2128081;27;20018;-87
2021/12/16 03:48:22;;;;;;;35.22;7.10;;;;;;;0.20;100.00;94518.50;2129620;27;20018;-88
2021/12/16 03:49:25;;;;;;;16.10;6.95;;;;;;;0.23;100.00;94525.75;2121860;27;20015;-88
2021/12/16 03:50:26;;;;;;;14.02;6.45;;;;;;;0.23;100.00;94529.16;2120356;27;20015;-88
2021/12/16 03:51:38;;;;;;;18.42;7.07;;;;;;;0.26;100.00;94533.00;2129187;27;20521;-86
2021/12/16 03:52:39;;;;;;;27.95;7.03;;;;;;;0.36;100.00;94529.28;2122907;27;20484;-88
2021/12/16 03:53:43;;;;;;;23.70;7.35;;;;;;;0.36;100.00;94534.53;2120849;27;20529;-87
2021/12/16 03:54:49;;;;;;;15.40;6.93;;;;;;;0.25;100.00;94534.09;2125935;27;20051;-85
2021/12/16 03:55:51;;;;;;;12.85;7.45;;;;;;;0.47;100.00;94530.44;2129672;27;20019;-88
2021/12/16 03:56:53;;;;;;;13.90;6.55;;;;;;;0.38;100.00;94538.38;2126890;27;20019;-88
2021/12/16 03:57:53;;;;;;;18.92;6.75;;;;;;;0.27;100.00;94539.81;2127158;27;20106;-87
2021/12/16 03:58:55;;;;;;;16.70;6.00;;;;;;;0.21;100.00;94543.69;2128164;27;20060;-86
2021/12/16 03:59:55;;;;;;;34.05;6.63;;;;;;;0.13;100.00;94537.41;2119632;27;20015;-87
2021/12/16 04:01:00;;;;;;;23.30;7.13;;;;;;;0.06;100.00;94539.72;2123095;27;20057;-86
2021/12/16 04:02:06;;;;;;;14.68;6.68;;;;;;;-0.03;100.00;94534.50;2119763;27;20019;-87
2021/12/16 04:03:06;;;;;;;20.65;7.28;;;;;;;0.06;100.00;94536.31;2118955;27;20019;-88
2021/12/16 04:04:07;;;;;;;12.88;6.82;;;;;;;0.03;100.00;94542.97;2124783;27;20011;-88
2021/12/16 04:05:10;;;;;;;30.40;7.20;;;;;;;0.04;100.00;94541.09;2121517;27;20046;-86
2021/12/16 04:06:11;;;;;;;19.83;6.55;;;;;;;0.02;100.00;94540.66;2128433;27;20413;-87
2021/12/16 04:07:12;;;;;;;31.52;7.15;;;;;;;0.04;100.00;94541.09;2120948;27;20060;-88
2021/12/16 04:08:13;;;;;;;26.35;6.45;;;;;;;0.04;100.00;94541.09;2128253;27;20023;-89
2021/12/16 04:09:16;;;;;;;25.30;6.65;;;;;;;0.01;100.00;94536.50;2123985;27;20432;-87
2021/12/16 04:10:35;;;;;;;12.10;6.97;;;;;;;0.15;100.00;94537.84;2121787;27;20059;-88
2021/12/16 04:11:41;;;;;;;16.92;7.05;;;;;;;0.09;100.00;94539.09;2118168;27;20063;-87
2021/12/16 04:12:42;;;;;;;13.43;6.03;;;;;;;0.12;100.00;94538.47;2121114;27;20461;-87
2021/12/16 04:13:54;;;;;;;35.60;7.22;;;;;;;0.08;100.00;94527.03;2118844;27;20042;-87
2021/12/16 04:15:00;;;;;;;23.38;6.78;;;;;;;0.21;100.00;94533.16;2120637;27;20086;-86
2021/12/16 04:16:00;;;;;;;15.85;6.32;;;;;;;0.20;100.00;94536.91;2123937;27;20019;-87
2021/12/16 04:17:03;;;;;;;19.00;6.50;;;;;;;0.15;100.00;94534.44;2123047;27;20522;-87
2021/12/16 04:18:04;;;;;;;34.22;6.68;;;;;;;0.14;100.00;94535.53;2121012;27;20354;-88
2021/12/16 04:19:09;;;;;;;11.73;6.90;;;;;;;0.12;100.00;94538.47;2121028;27;20034;-87
2021/12/16 04:20:12;;;;;;;23.17;7.30;;;;;;;0.10;100.00;94537.25;2123068;27;20027;-88
2021/12/16 04:21:13;;;;;;;32.35;7.65;;;;;;;0.01;100.00;94541.75;2120901;27;20043;-86
2021/12/16 04:22:20;;;;;;;42.00;7.45;;;;;;;0.09;100.00;94539.09;2123151;27;20019;-87
2021/12/16 04:23:20;;;;;;;17.90;6.55;;;;;;;0.09;100.00;94536.47;2128257;27;20034;-87
2021/12/16 04:24:22;;;;;;;18.35;7.05;;;;;;;0.15;100.00;94529.19;2122283;27;20026;-87
2021/12/16 04:25:32;;;;;;;29.67;7.03;;;;;;;0.14;100.00;94535.53;2120035;27;20034;-88
2021/12/16 04:26:34;;;;;;;31.63;7.68;;;;;;;0.12;100.00;94538.47;2121724;27;20102;-88
2021/12/16 04:27:36;;;;;;;20.52;7.60;;;;;;;0.13;100.00;94536.59;2127567;27;20447;-88
2021/12/16 04:28:37;;;;;;;20.33;6.72;;;;;;;0.15;100.00;94529.19;2123942;27;20038;-87
2021/12/16 04:29:37;;;;;;;22.58;7.90;;;;;;;0.10;100.00;94537.25;2119933;27;20015;-86
2021/12/16 04:30:38;;;;;;;23.00;7.80;;;;;;;0.16;100.00;94539.38;2127206;27;20026;-86
2021/12/16 04:31:39;;;;;;;25.23;7.80;;;;;;;0.13;100.00;94542.66;2126397;27;20023;-88
2021/12/16 04:32:40;;;;;;;22.13;7.75;;;;;;;0.08;100.00;94536.78;2119052;27;20029;-87
2021/12/16 04:33:40;;;;;;;17.83;8.30;;;;;;;0.14;100.00;94544.19;2119254;27;20026;-86
2021/12/16 04:34:41;;;;;;;22.40;6.50;;;;;;;0.15;100.00;94542.31;2124849;27;20015;-87
2021/12/16 04:35:42;;;;;;;13.10;7.07;;;;;;;0.20;100.00;94544.78;2120622;27;20043;-86
2021/12/16 04:36:43;;;;;;;23.95;7.40;;;;;;;0.30;100.00;94541.81;2120735;27;20027;-87
2021/12/16 04:37:44;;;;;;;21.20;7.18;;;;;;;0.29;100.00;94544.75;2118819;27;20018;-86
2021/12/16 04:38:46;;;;;;;45.65;7.35;;;;;;;0.20;100.00;94542.16;2125342;27;20019;-88
2021/12/16 04:39:47;;;;;;;23.15;8.07;;;;;;;0.20;100.00;94552.66;2127538;27;20383;-87
2021/12/16 04:40:49;;;;;;;14.57;7.55;;;;;;;0.45;100.00;94546.56;2117681;27;20035;-86
2021/12/16 04:41:53;;;;;;;12.32;6.63;;;;;;;0.43;100.00;94542.69;2121662;27;20047;-87
2021/12/16 04:42:59;;;;;;;27.65;6.93;;;;;;;0.48;100.00;94547.75;2120856;27;20022;-88
2021/12/16 04:44:02;;;;;;;28.55;7.32;;;;;;;0.28;100.00;94543.22;2123816;27;20027;-87
2021/12/16 04:45:06;;;;;;;14.38;6.65;;;;;;;0.26;100.00;94559.28;2129812;27;20015;-87
2021/12/16 04:46:10;;;;;;;12.40;6.38;;;;;;;0.27;100.00;94554.81;2120449;27;20081;-87
2021/12/16 04:47:12;;;;;;;15.20;6.65;;;;;;;0.24;100.00;94551.72;2118387;27;20015;-87
2021/12/16 04:48:12;;;;;;;17.02;6.53;;;;;;;0.21;100.00;94549.72;2119412;27;20015;-88
2021/12/16 04:49:15;;;;;;;13.45;6.45;;;;;;;0.24;100.00;94556.22;2119055;27;20023;-87
2021/12/16 04:50:17;;;;;;;16.33;5.57;;;;;;;0.16;100.00;94555.16;2129643;27;20026;-85
2021/12/16 04:51:18;;;;;;;10.95;6.30;;;;;;;0.17;100.00;94559.31;2128879;27;20023;-87
2021/12/16 04:52:19;;;;;;;16.25;6.78;;;;;;;0.15;100.00;94552.84;2127567;27;20027;-87
2021/12/16 04:53:20;;;;;;;13.73;5.95;;;;;;;0.16;100.00;94551.75;2123263;27;20675;-88
2021/12/16 04:54:23;;;;;;;12.27;6.10;;;;;;;0.22;100.00;94555.75;2121592;27;20368;-88
2021/12/16 04:55:24;;;;;;;13.18;5.68;;;;;;;0.10;100.00;94550.38;2119401;27;20023;-87
2021/12/16 04:56:26;;;;;;;14.10;6.30;;;;;;;0.11;100.00;94557.94;2125234;27;20544;-87
2021/12/16 04:57:27;;;;;;;14.63;7.00;;;;;;;0.07;100.00;94558.88;2119998;27;20019;-87
2021/12/16 04:58:28;;;;;;;12.05;6.82;;;;;;;0.11;100.00;94559.81;2119148;27;20030;-88
2021/12/16 04:59:31;;;;;;;16.27;6.63;;;;;;;0.18;100.00;94568.00;2127565;27;20019;-87
2021/12/16 05:00:31;;;;;;;10.70;6.22;;;;;;;0.18;100.00;94560.13;2127715;27;20014;-87
2021/12/16 05:01:32;;;;;;;13.65;6.38;;;;;;;0.16;100.00;94565.66;2119113;27;20015;-87
2021/12/16 05:02:32;;;;;;;9.73;5.75;;;;;;;0.18;100.00;94565.38;2120446;27;20015;-87
2021/12/16 05:03:34;;;;;;;9.77;5.63;;;;;;;0.16;100.00;94563.03;2119012;27;20065;-86
2021/12/16 05:04:35;;;;;;;10.82;5.60;;;;;;;0.21;100.00;94562.09;2126955;27;20082;-87
2021/12/16 05:05:35;;;;;;;10.82;5.70;;;;;;;0.23;100.00;94568.59;2121223;27;20111;-88
2021/12/16 05:06:37;;;;;;;15.80;5.10;;;;;;;0.23;100.00;94560.72;2119522;27;20019;-88
2021/12/16 05:07:39;;;;;;;12.10;5.40;;;;;;;0.20;100.00;94557.94;2122384;27;20110;-87
2021/12/16 05:08:41;;;;;;;14.40;6.47;;;;;;;0.20;100.00;94557.94;2120239;27;20089;-87
2021/12/16 05:10:44;;;;;;;12.90;6.55;;;;;;;0.18;100.00;94554.84;2125201;27;20069;-89
2021/12/16 05:11:44;;;;;;;11.93;5.65;;;;;;;0.17;100.00;94554.06;2127322;27;20038;-86
2021/12/16 05:12:50;;;;;;;13.05;6.53;;;;;;;0.22;100.00;94556.53;2125345;27;20064;-88
2021/12/16 05:13:51;;;;;;;17.15;6.25;;;;;;;0.21;100.00;94551.56;2126426;27;20023;-87
2021/12/16 05:14:52;;;;;;;14.50;6.30;;;;;;;0.22;100.00;94556.53;2123311;27;20027;-87
2021/12/16 05:15:56;;;;;;;10.70;6.03;;;;;;;0.17;100.00;94564.56;2120358;27;20019;-86
2021/12/16 05:17:22;;;;;;;16.48;5.90;;;;;;;0.22;100.00;94556.53;2119765;27;20024;-86
2021/12/16 05:18:31;;;;;;;19.15;6.22;;;;;;;0.26;100.00;94564.53;2124241;27;20041;-88
2021/12/16 05:19:32;;;;;;;12.02;5.35;;;;;;;0.24;100.00;94561.47;2115766;27;20028;-86
2021/12/16 05:20:40;;;;;;;10.80;5.30;;;;;;;0.19;100.00;94567.69;2120802;27;20011;-88
2021/12/16 05:24:30;;;;;;;;;;;;;;;0.13;100.00;94563.69;2128644;27;20105;-85
2021/12/16 05:26:49;;;;;;;9.98;4.82;;;;;;;0.17;100.00;94561.94;2126967;27;20027;-86
2021/12/16 05:27:50;;;;;;;9.73;5.18;;;;;;;0.21;100.00;94564.72;2125016;27;20110;-88
2021/12/16 05:28:54;;;;;;;9.60;4.78;;;;;;;0.24;100.00;94569.38;2121049;27;20027;-86
2021/12/16 05:29:54;;;;;;;11.00;5.40;;;;;;;0.20;100.00;94569.22;2117509;27;20030;-86
2021/12/16 05:30:56;;;;;;;9.70;5.63;;;;;;;0.23;100.00;94571.22;2127243;27;20022;-87
2021/12/16 05:31:56;;;;;;;9.55;5.10;;;;;;;0.25;100.00;94570.91;2127039;27;20053;-87
2021/12/16 05:32:57;;;;;;;12.30;5.50;;;;;;;0.23;100.00;94570.47;2122082;27;20483;-87
2021/12/16 05:34:00;;;;;;;9.30;5.18;;;;;;;0.33;100.00;94572.72;2118331;27;20044;-86
2021/12/16 05:35:01;;;;;;;9.15;5.30;;;;;;;0.43;100.00;94576.88;2120054;27;20382;-87
2021/12/16 05:36:02;;;;;;;8.23;5.25;;;;;;;0.38;100.00;94575.19;2118464;27;20023;-87
2021/12/16 05:37:05;;;;;;;13.45;6.10;;;;;;;0.43;100.00;94572.38;2117747;27;20676;-87
2021/12/16 05:38:05;;;;;;;7.22;5.13;;;;;;;0.33;100.00;94571.97;2119177;27;20032;-85
2021/12/16 05:39:06;;;;;;;9.68;4.65;;;;;;;0.30;100.00;94570.72;2119826;27;20106;-87
2021/12/16 05:40:08;;;;;;;8.13;4.82;;;;;;;0.28;100.00;94577.41;2125333;27;20112;-88
2021/12/16 05:41:12;;;;;;;10.48;5.22;;;;;;;0.36;100.00;94579.22;2119303;27;20075;-87
2021/12/16 05:42:13;;;;;;;7.25;4.88;;;;;;;0.41;100.00;94574.56;2118738;27;20031;-86
2021/12/16 05:43:16;;;;;;;8.07;5.45;;;;;;;0.37;100.00;94584.16;2119659;27;20117;-87
2021/12/16 05:44:17;;;;;;;8.88;5.13;;;;;;;0.30;100.00;94569.97;2125798;27;20082;-88
2021/12/16 05:45:17;;;;;;;12.88;5.40;;;;;;;0.20;100.00;94581.59;2125932;27;20521;-87
2021/12/16 05:46:20;;;;;;;7.95;4.90;;;;;;;0.22;100.00;94585.47;2115836;27;20023;-87
2021/12/16 05:47:21;;;;;;;9.93;5.47;;;;;;;0.25;100.00;94582.19;2126842;27;20029;-86
2021/12/16 05:48:27;;;;;;;8.48;5.50;;;;;;;0.37;100.00;94594.69;2125991;27;20019;-86
2021/12/16 05:49:27;;;;;;;9.63;5.03;;;;;;;0.42;100.00;94588.50;2113981;27;20106;-85
2021/12/16 05:50:32;;;;;;;13.98;5.32;;;;;;;0.36;100.00;94598.41;2113294;28;20021;-87
2021/12/16 05:51:35;;;;;;;7.35;5.05;;;;;;;0.35;100.00;94591.63;2114138;28;20737;-87
2021/12/16 05:52:37;;;;;;;7.70;5.50;;;;;;;0.42;100.00;94596.38;2122190;27;20131;-88
2021/12/16 05:53:40;;;;;;;12.48;5.78;;;;;;;0.38;100.00;94592.81;2114163;28;20072;-85
2021/12/16 05:54:41;;;;;;;9.88;5.88;;;;;;;0.33;100.00;94588.50;2114043;27;20114;-87
2021/12/16 05:55:41;;;;;;;7.20;4.70;;;;;;;0.39;100.00;94589.88;2122966;27;20023;-88
2021/12/16 05:56:42;;;;;;;8.82;5.50;;;;;;;0.42;100.00;94597.16;2122351;27;20126;-86
2021/12/16 05:57:43;;;;;;;9.07;5.65;;;;;;;0.41;100.00;94595.59;2114047;28;20034;-87
2021/12/16 05:58:43;;;;;;;9.88;5.93;;;;;;;0.42;100.00;94599.00;2128834;27;20037;-86
2021/12/16 05:59:44;;;;;;;10.15;5.68;;;;;;;0.34;100.00;94597.94;2116555;27;20034;-85
2021/12/16 06:00:49;;;;;;;9.48;5.43;;;;;;;0.22;100.00;94603.06;2114398;28;20046;-86
2021/12/16 06:01:50;;;;;;;9.63;5.45;;;;;;;0.20;100.00;94592.88;2127648;27;20023;-86
2021/12/16 06:02:51;;;;;;;11.27;6.10;;;;;;;0.27;100.00;94605.56;2124341;27;20110;-87
2021/12/16 06:03:52;;;;;;;9.82;6.03;;;;;;;0.37;100.00;94599.94;2122257;27;20026;-88
2021/12/16 06:04:52;;;;;;;11.55;6.75;;;;;;;0.39;100.00;94602.25;2113776;28;20053;-88
2021/12/16 06:05:54;;;;;;;10.25;6.15;;;;;;;0.52;100.00;94601.28;2113902;28;20027;-86
2021/12/16 06:06:55;;;;;;;13.38;6.20;;;;;;;0.58;100.00;94607.94;2113793;28;20923;-88
2021/12/16 06:07:56;;;;;;;9.93;5.95;;;;;;;0.62;100.00;94613.34;2113543;28;20027;-86
2021/12/16 06:08:58;;;;;;;12.73;6.07;;;;;;;0.54;100.00;94611.50;2125611;27;20018;-86
2021/12/16 06:09:58;;;;;;;10.75;6.13;;;;;;;0.54;100.00;94614.16;2118688;27;20027;-87
2021/12/16 06:12:07;;;;;;;12.77;6.82;;;;;;;0.40;100.00;94616.97;2112856;28;20111;-88
2021/12/16 06:13:08;;;;;;;10.88;7.10;;;;;;;0.28;100.00;94617.63;2113187;28;20358;-86
2021/12/16 06:14:21;;;;;;;12.07;6.78;;;;;;;0.33;100.00;94614.81;2113688;28;20131;-88
2021/12/16 06:15:43;;;;;;;13.20;6.68;;;;;;;0.28;100.00;94611.59;2113882;28;20097;-86
2021/12/16 06:26:44;;;;;;;12.48;6.75;;;;;;;0.21;100.00;94622.56;2096663;28;20119;-86
2021/12/16 06:27:50;;;;;;;13.43;6.68;;;;;;;0.31;100.00;94618.81;2093028;28;20064;-87
2021/12/16 06:28:50;;;;;;;13.35;7.72;;;;;;;0.40;100.00;94627.50;2112117;28;20114;-85
2021/12/16 06:29:54;;;;;;;12.43;7.35;;;;;;;0.33;100.00;94624.56;2104968;28;20032;-88
2021/12/16 06:30:54;;;;;;;14.55;7.70;;;;;;;0.36;100.00;94629.19;2113712;28;20115;-86
2021/12/16 06:31:55;;;;;;;13.85;7.05;;;;;;;0.37;100.00;94626.25;2111649;28;20023;-86
2021/12/16 06:32:56;;;;;;;12.52;7.45;;;;;;;0.38;100.00;94630.41;2113896;28;20036;-86
2021/12/16 06:33:57;;;;;;;14.23;7.25;;;;;;;0.43;100.00;94637.38;2112054;28;20073;-87
2021/12/16 06:34:58;;;;;;;15.27;7.55;;;;;;;0.40;100.00;94625.63;2121722;28;20551;-87
2021/12/16 06:35:58;;;;;;;11.88;7.15;;;;;;;0.28;100.00;94632.63;2115378;28;20115;-87
2021/12/16 06:37:00;;;;;;;14.75;7.45;;;;;;;0.29;100.00;94632.31;2121392;28;20211;-88
2021/12/16 06:38:00;;;;;;;11.82;6.70;;;;;;;0.26;100.00;94638.19;2119584;28;20027;-87
2021/12/16 06:39:02;;;;;;;13.30;7.05;;;;;;;0.25;100.00;94634.00;2110542;28;20727;-87
2021/12/16 06:40:04;;;;;;;13.43;7.07;;;;;;;0.20;100.00;94634.94;2117521;27;20027;-88
2021/12/16 06:41:08;;;;;;;11.45;6.78;;;;;;;0.28;100.00;94640.50;2107805;28;20032;-88
2021/12/16 06:42:09;;;;;;;15.30;6.88;;;;;;;0.30;100.00;94639.09;2115413;27;20024;-86
2021/12/16 06:43:12;;;;;;;15.52;6.63;;;;;;;0.24;100.00;94640.34;2120673;27;20405;-87
2021/12/16 06:44:40;;;;;;;12.95;6.60;;;;;;;0.25;100.00;94634.78;2116105;28;20032;-87
2021/12/16 06:45:38;;;;;;;10.95;6.40;;;;;;;0.17;100.00;94632.16;2123758;27;20479;-86
2021/12/16 06:46:40;;;;;;;12.38;6.40;;;;;;;0.37;100.00;94636.00;2119742;27;20016;-87
2021/12/16 06:48:44;;;;;;;11.50;6.00;;;;;;;0.41;100.00;94637.69;2119894;27;20023;-85
2021/12/16 06:49:47;;;;;;;13.93;6.82;;;;;;;0.39;100.00;94633.81;2118819;27;20051;-85
2021/12/16 06:50:58;;;;;;;8.98;5.38;;;;;;;0.33;100.00;94637.72;2119612;27;20023;-85
2021/12/16 06:52:05;;;;;;;9.85;6.55;;;;;;;0.43;100.00;94640.00;2115436;28;20063;-85
2021/12/16 06:53:08;;;;;;;12.98;6.88;;;;;;;0.52;100.00;94637.34;2122243;27;20391;-85
2021/12/16 06:54:14;;;;;;;12.02;6.65;;;;;;;0.59;100.00;94642.91;2113526;28;20063;-86
2021/12/16 06:55:26;;;;;;;11.73;6.70;;;;;;;0.41;100.00;94636.91;2116357;27;20036;-87
2021/12/16 06:56:34;;;;;;;11.38;6.72;;;;;;;0.54;100.00;94645.72;2123982;27;20037;-85
2021/12/16 06:57:51;;;;;;;11.18;6.75;;;;;;;0.45;100.00;94643.88;2112415;28;20031;-86
2021/12/16 06:59:04;;;;;;;11.73;7.18;;;;;;;0.41;100.00;94637.69;2121241;27;20030;-88
2021/12/16 07:00:17;;;;;;;12.55;6.95;;;;;;;0.41;100.00;94648.22;2116770;27;20408;-87
2021/12/16 07:01:38;;;;;;;10.40;6.40;;;;;;;0.39;100.00;94641.72;2116409;27;20154;-88
2021/12/16 07:03:58;;;;;;;12.73;6.53;;;;;;;0.37;100.00;94638.63;2117290;27;20067;-86
2021/12/16 07:04:59;;;;;;;10.52;6.05;;;;;;;0.36;100.00;94648.38;2121675;27;20070;-86
2021/12/16 07:06:04;;;;;;;10.45;5.80;;;;;;;0.33;100.00;94645.59;2108102;28;20679;-86
2021/12/16 07:07:09;;;;;;;10.63;5.47;;;;;;;0.37;100.00;94649.91;2114534;27;20024;-87
2021/12/16 07:08:12;;;;;;;12.70;5.63;;;;;;;0.34;100.00;94644.50;2115748;27;20028;-88
2021/12/16 07:09:16;;;;;;;12.45;6.60;;;;;;;0.35;100.00;94644.22;2107289;28;20057;-83
2021/12/16 07:10:21;;;;;;;13.00;6.47;;;;;;;0.37;100.00;94636.78;2115506;28;20583;-88
2021/12/16 07:11:23;;;;;;;12.50;6.18;;;;;;;0.43;100.00;94640.75;2122072;27;20051;-87
2021/12/16 07:12:34;;;;;;;8.75;5.47;;;;;;;0.46;100.00;94649.91;2123583;27;20686;-87
2021/12/16 07:13:40;;;;;;;10.07;5.22;;;;;;;0.32;100.00;94644.84;2128515;27;20023;-87
2021/12/16 07:14:40;;;;;;;9.90;5.40;;;;;;;0.41;100.00;94644.81;2128565;27;20019;-87
2021/12/16 07:15:41;;;;;;;11.90;5.03;;;;;;;0.37;100.00;94641.25;2132429;27;20022;-87
2021/12/16 07:16:44;;;;;;;8.93;5.07;;;;;;;0.38;100.00;94653.31;2123503;27;20064;-88
2021/12/16 07:17:44;;;;;;;11.73;5.80;;;;;;;0.38;100.00;94651.47;2124656;27;20023;-87
2021/12/16 07:18:45;;;;;;;10.63;5.28;;;;;;;0.35;100.00;94652.09;2122882;27;20034;-87
2021/12/16 07:19:46;;;;;;;9.02;4.70;;;;;;;0.37;100.00;94651.78;2128967;27;20031;-87
2021/12/16 07:20:46;;;;;;;8.88;4.60;;;;;;;0.30;100.00;94646.97;2132414;27;20499;-87